sensor_id;sensor_type;location;lat;lon;timestamp;P1;durP1;ratioP1;P2;durP2;ratioP2
12232;SDS011;6179;51.748;8.728;2023-04-25T00:01:44;28.97;;;3.90;;
12232;SDS011;6179;51.748;8.728;2023-04-25T00:07:44;8.03;;;2.53;;
12232;SDS011;6179;51.748;8.728;2023-04-25T00:13:45;17.37;;;3.00;;
12232;SDS011;6179;51.748;8.728;2023-04-25T00:19:46;18.40;;;3.90;;
12232;SDS011;6179;51.748;8.728;2023-04-25T00:25:48;4.53;;;2.03;;
12232;SDS011;6179;51.748;8.728;2023-04-25T00:31:49;6.87;;;2.53;;
12232;SDS011;6179;51.748;8.728;2023-04-25T00:37:50;9.73;;;1.97;;
12232;SDS011;6179;51.748;8.728;2023-04-25T00:43:50;9.10;;;2.73;;
12232;SDS011;6179;51.748;8.728;2023-04-25T00:49:51;4.50;;;2.90;;
12232;SDS011;6179;51.748;8.728;2023-04-25T00:55:53;19.53;;;3.43;;
12232;SDS011;6179;51.748;8.728;2023-04-25T01:01:54;16.70;;;3.33;;
12232;SDS011;6179;51.748;8.728;2023-04-25T01:07:55;9.83;;;4.20;;
12232;SDS011;6179;51.748;8.728;2023-04-25T01:13:56;19.30;;;4.20;;
12232;SDS011;6179;51.748;8.728;2023-04-25T01:19:57;31.03;;;4.70;;
12232;SDS011;6179;51.748;8.728;2023-04-25T01:25:58;7.30;;;3.83;;
12232;SDS011;6179;51.748;8.728;2023-04-25T01:31:59;21.40;;;4.87;;
12232;SDS011;6179;51.748;8.728;2023-04-25T01:38:01;21.83;;;4.30;;
12232;SDS011;6179;51.748;8.728;2023-04-25T01:44:01;17.77;;;6.40;;
12232;SDS011;6179;51.748;8.728;2023-04-25T01:50:03;15.63;;;4.80;;
12232;SDS011;6179;51.748;8.728;2023-04-25T01:56:04;17.63;;;6.10;;
12232;SDS011;6179;51.748;8.728;2023-04-25T02:02:05;16.97;;;5.43;;
12232;SDS011;6179;51.748;8.728;2023-04-25T02:08:07;17.23;;;6.27;;
12232;SDS011;6179;51.748;8.728;2023-04-25T02:14:08;18.37;;;7.80;;
12232;SDS011;6179;51.748;8.728;2023-04-25T02:20:09;30.57;;;7.60;;
12232;SDS011;6179;51.748;8.728;2023-04-25T02:26:10;18.20;;;6.20;;
12232;SDS011;6179;51.748;8.728;2023-04-25T02:32:13;13.87;;;6.23;;
12232;SDS011;6179;51.748;8.728;2023-04-25T02:38:13;16.40;;;5.17;;
12232;SDS011;6179;51.748;8.728;2023-04-25T02:44:14;22.43;;;5.40;;
12232;SDS011;6179;51.748;8.728;2023-04-25T02:50:15;25.23;;;6.60;;
12232;SDS011;6179;51.748;8.728;2023-04-25T02:56:15;18.47;;;7.10;;
12232;SDS011;6179;51.748;8.728;2023-04-25T03:02:16;17.47;;;6.90;;
12232;SDS011;6179;51.748;8.728;2023-04-25T03:08:17;11.63;;;5.53;;
12232;SDS011;6179;51.748;8.728;2023-04-25T03:14:18;17.73;;;6.70;;
12232;SDS011;6179;51.748;8.728;2023-04-25T03:20:19;11.93;;;4.80;;
12232;SDS011;6179;51.748;8.728;2023-04-25T03:26:20;25.70;;;8.37;;
12232;SDS011;6179;51.748;8.728;2023-04-25T03:32:20;16.07;;;6.67;;
12232;SDS011;6179;51.748;8.728;2023-04-25T03:38:21;16.67;;;5.73;;
12232;SDS011;6179;51.748;8.728;2023-04-25T03:44:21;13.60;;;5.90;;
12232;SDS011;6179;51.748;8.728;2023-04-25T03:50:24;14.60;;;4.97;;
12232;SDS011;6179;51.748;8.728;2023-04-25T03:56:24;13.77;;;3.23;;
12232;SDS011;6179;51.748;8.728;2023-04-25T04:02:25;9.63;;;3.00;;
12232;SDS011;6179;51.748;8.728;2023-04-25T04:08:26;12.60;;;4.17;;
12232;SDS011;6179;51.748;8.728;2023-04-25T04:14:26;10.80;;;2.60;;
12232;SDS011;6179;51.748;8.728;2023-04-25T04:20:28;9.50;;;4.20;;
12232;SDS011;6179;51.748;8.728;2023-04-25T04:26:30;8.97;;;2.03;;
12232;SDS011;6179;51.748;8.728;2023-04-25T04:32:32;11.77;;;1.97;;
12232;SDS011;6179;51.748;8.728;2023-04-25T04:38:34;15.83;;;2.90;;
12232;SDS011;6179;51.748;8.728;2023-04-25T04:44:36;7.23;;;3.33;;
12232;SDS011;6179;51.748;8.728;2023-04-25T04:50:38;25.57;;;4.10;;
12232;SDS011;6179;51.748;8.728;2023-04-25T04:56:40;5.07;;;2.70;;
12232;SDS011;6179;51.748;8.728;2023-04-25T05:02:41;23.03;;;2.50;;
12232;SDS011;6179;51.748;8.728;2023-04-25T05:08:42;22.83;;;2.50;;
12232;SDS011;6179;51.748;8.728;2023-04-25T05:14:42;20.30;;;4.10;;
12232;SDS011;6179;51.748;8.728;2023-04-25T05:20:43;13.90;;;2.93;;
12232;SDS011;6179;51.748;8.728;2023-04-25T05:26:44;25.07;;;3.00;;
12232;SDS011;6179;51.748;8.728;2023-04-25T05:32:44;22.93;;;3.23;;
12232;SDS011;6179;51.748;8.728;2023-04-25T05:38:46;6.73;;;2.23;;
12232;SDS011;6179;51.748;8.728;2023-04-25T05:44:47;11.53;;;1.83;;
12232;SDS011;6179;51.748;8.728;2023-04-25T05:50:48;27.40;;;2.80;;
12232;SDS011;6179;51.748;8.728;2023-04-25T05:56:48;11.73;;;2.90;;
12232;SDS011;6179;51.748;8.728;2023-04-25T06:02:49;18.27;;;2.80;;
12232;SDS011;6179;51.748;8.728;2023-04-25T06:08:50;17.90;;;2.63;;
12232;SDS011;6179;51.748;8.728;2023-04-25T06:14:51;15.23;;;3.03;;
12232;SDS011;6179;51.748;8.728;2023-04-25T06:20:52;7.67;;;2.90;;
12232;SDS011;6179;51.748;8.728;2023-04-25T06:26:52;15.90;;;2.40;;
12232;SDS011;6179;51.748;8.728;2023-04-25T06:32:53;35.37;;;2.20;;
12232;SDS011;6179;51.748;8.728;2023-04-25T06:38:53;7.80;;;1.93;;
12232;SDS011;6179;51.748;8.728;2023-04-25T06:44:54;23.13;;;2.47;;
12232;SDS011;6179;51.748;8.728;2023-04-25T06:50:55;7.73;;;1.57;;
12232;SDS011;6179;51.748;8.728;2023-04-25T06:56:56;20.67;;;2.50;;
12232;SDS011;6179;51.748;8.728;2023-04-25T07:02:57;10.03;;;1.57;;
12232;SDS011;6179;51.748;8.728;2023-04-25T07:08:57;12.87;;;1.53;;
12232;SDS011;6179;51.748;8.728;2023-04-25T07:14:58;14.13;;;3.00;;
12232;SDS011;6179;51.748;8.728;2023-04-25T07:20:59;12.30;;;1.77;;
12232;SDS011;6179;51.748;8.728;2023-04-25T07:26:59;12.63;;;1.63;;
12232;SDS011;6179;51.748;8.728;2023-04-25T07:33:01;10.30;;;2.10;;
12232;SDS011;6179;51.748;8.728;2023-04-25T07:39:01;7.57;;;1.70;;
12232;SDS011;6179;51.748;8.728;2023-04-25T07:45:02;11.93;;;1.40;;
12232;SDS011;6179;51.748;8.728;2023-04-25T07:51:03;11.07;;;1.60;;
12232;SDS011;6179;51.748;8.728;2023-04-25T07:57:05;9.13;;;1.20;;
12232;SDS011;6179;51.748;8.728;2023-04-25T08:03:09;9.67;;;1.90;;
12232;SDS011;6179;51.748;8.728;2023-04-25T08:09:10;0.83;;;0.60;;
12232;SDS011;6179;51.748;8.728;2023-04-25T08:15:10;8.60;;;0.83;;
12232;SDS011;6179;51.748;8.728;2023-04-25T08:21:13;24.23;;;1.70;;
12232;SDS011;6179;51.748;8.728;2023-04-25T08:27:15;7.53;;;0.90;;
12232;SDS011;6179;51.748;8.728;2023-04-25T08:33:16;8.53;;;0.93;;
12232;SDS011;6179;51.748;8.728;2023-04-25T08:39:16;3.23;;;0.70;;
12232;SDS011;6179;51.748;8.728;2023-04-25T08:45:17;5.80;;;1.57;;
12232;SDS011;6179;51.748;8.728;2023-04-25T08:51:21;8.40;;;1.53;;
12232;SDS011;6179;51.748;8.728;2023-04-25T08:57:24;2.57;;;0.70;;
12232;SDS011;6179;51.748;8.728;2023-04-25T09:03:25;5.13;;;0.93;;
12232;SDS011;6179;51.748;8.728;2023-04-25T09:09:26;9.77;;;1.23;;
12232;SDS011;6179;51.748;8.728;2023-04-25T09:15:27;13.90;;;1.97;;
12232;SDS011;6179;51.748;8.728;2023-04-25T09:21:28;5.90;;;0.60;;
12232;SDS011;6179;51.748;8.728;2023-04-25T09:27:30;4.50;;;1.40;;
12232;SDS011;6179;51.748;8.728;2023-04-25T09:33:32;6.23;;;0.57;;
12232;SDS011;6179;51.748;8.728;2023-04-25T09:39:34;3.17;;;0.80;;
12232;SDS011;6179;51.748;8.728;2023-04-25T09:45:42;1.80;;;0.60;;
12232;SDS011;6179;51.748;8.728;2023-04-25T09:51:53;4.73;;;0.73;;
12232;SDS011;6179;51.748;8.728;2023-04-25T09:57:57;7.07;;;0.53;;
12232;SDS011;6179;51.748;8.728;2023-04-25T10:04:04;9.23;;;1.07;;
12232;SDS011;6179;51.748;8.728;2023-04-25T10:10:09;8.77;;;0.70;;
12232;SDS011;6179;51.748;8.728;2023-04-25T10:16:12;6.50;;;0.60;;
12232;SDS011;6179;51.748;8.728;2023-04-25T10:22:28;7.73;;;1.00;;
12232;SDS011;6179;51.748;8.728;2023-04-25T10:28:54;8.73;;;0.70;;
12232;SDS011;6179;51.748;8.728;2023-04-25T10:35:10;2.20;;;0.77;;
12232;SDS011;6179;51.748;8.728;2023-04-25T10:41:14;1.43;;;0.40;;
12232;SDS011;6179;51.748;8.728;2023-04-25T10:47:14;4.63;;;0.60;;
12232;SDS011;6179;51.748;8.728;2023-04-25T10:53:46;13.80;;;0.80;;
12232;SDS011;6179;51.748;8.728;2023-04-25T11:06:17;0.60;;;0.50;;
12232;SDS011;6179;51.748;8.728;2023-04-25T11:12:31;3.93;;;0.70;;
12232;SDS011;6179;51.748;8.728;2023-04-25T11:18:32;3.27;;;0.90;;
12232;SDS011;6179;51.748;8.728;2023-04-25T11:24:34;1.63;;;0.67;;
12232;SDS011;6179;51.748;8.728;2023-04-25T11:30:36;2.63;;;0.60;;
12232;SDS011;6179;51.748;8.728;2023-04-25T11:36:38;2.20;;;0.67;;
12232;SDS011;6179;51.748;8.728;2023-04-25T11:42:39;2.20;;;0.83;;
12232;SDS011;6179;51.748;8.728;2023-04-25T11:48:45;5.63;;;0.50;;
12232;SDS011;6179;51.748;8.728;2023-04-25T11:54:46;4.57;;;0.60;;
12232;SDS011;6179;51.748;8.728;2023-04-25T12:00:47;3.87;;;0.70;;
12232;SDS011;6179;51.748;8.728;2023-04-25T12:06:49;3.87;;;0.90;;
12232;SDS011;6179;51.748;8.728;2023-04-25T12:12:54;2.77;;;0.80;;
12232;SDS011;6179;51.748;8.728;2023-04-25T12:18:55;3.37;;;0.47;;
12232;SDS011;6179;51.748;8.728;2023-04-25T12:24:57;5.50;;;0.60;;
12232;SDS011;6179;51.748;8.728;2023-04-25T12:37:02;0.60;;;0.53;;
12232;SDS011;6179;51.748;8.728;2023-04-25T12:43:02;4.90;;;0.47;;
12232;SDS011;6179;51.748;8.728;2023-04-25T12:49:03;2.43;;;0.70;;
12232;SDS011;6179;51.748;8.728;2023-04-25T12:55:04;6.23;;;0.60;;
12232;SDS011;6179;51.748;8.728;2023-04-25T13:01:05;5.53;;;0.77;;
12232;SDS011;6179;51.748;8.728;2023-04-25T13:07:07;8.07;;;0.50;;
12232;SDS011;6179;51.748;8.728;2023-04-25T13:13:07;4.10;;;0.83;;
12232;SDS011;6179;51.748;8.728;2023-04-25T13:19:08;5.80;;;0.40;;
12232;SDS011;6179;51.748;8.728;2023-04-25T13:25:11;0.40;;;0.40;;
12232;SDS011;6179;51.748;8.728;2023-04-25T13:31:11;4.13;;;0.70;;
12232;SDS011;6179;51.748;8.728;2023-04-25T13:37:12;1.23;;;0.57;;
12232;SDS011;6179;51.748;8.728;2023-04-25T13:43:13;4.63;;;0.57;;
12232;SDS011;6179;51.748;8.728;2023-04-25T13:49:13;0.60;;;0.60;;
12232;SDS011;6179;51.748;8.728;2023-04-25T13:55:14;3.53;;;0.47;;
12232;SDS011;6179;51.748;8.728;2023-04-25T14:01:15;2.10;;;0.40;;
12232;SDS011;6179;51.748;8.728;2023-04-25T14:07:15;0.40;;;0.30;;
12232;SDS011;6179;51.748;8.728;2023-04-25T14:13:16;3.07;;;0.33;;
12232;SDS011;6179;51.748;8.728;2023-04-25T14:19:17;1.43;;;0.67;;
12232;SDS011;6179;51.748;8.728;2023-04-25T14:25:18;0.93;;;0.53;;
12232;SDS011;6179;51.748;8.728;2023-04-25T14:31:18;0.40;;;0.40;;
12232;SDS011;6179;51.748;8.728;2023-04-25T14:37:19;2.20;;;0.97;;
12232;SDS011;6179;51.748;8.728;2023-04-25T14:43:20;0.67;;;0.50;;
12232;SDS011;6179;51.748;8.728;2023-04-25T14:49:21;0.50;;;0.40;;
12232;SDS011;6179;51.748;8.728;2023-04-25T14:55:21;0.57;;;0.40;;
12232;SDS011;6179;51.748;8.728;2023-04-25T15:01:22;4.53;;;0.70;;
12232;SDS011;6179;51.748;8.728;2023-04-25T15:07:23;1.50;;;0.70;;
12232;SDS011;6179;51.748;8.728;2023-04-25T15:13:23;4.43;;;0.70;;
12232;SDS011;6179;51.748;8.728;2023-04-25T15:19:25;0.90;;;0.50;;
12232;SDS011;6179;51.748;8.728;2023-04-25T15:25:26;2.53;;;0.83;;
12232;SDS011;6179;51.748;8.728;2023-04-25T15:31:28;1.80;;;0.50;;
12232;SDS011;6179;51.748;8.728;2023-04-25T15:37:28;6.53;;;0.50;;
12232;SDS011;6179;51.748;8.728;2023-04-25T15:43:30;3.07;;;0.73;;
12232;SDS011;6179;51.748;8.728;2023-04-25T15:49:30;2.40;;;0.60;;
12232;SDS011;6179;51.748;8.728;2023-04-25T15:55:31;0.40;;;0.40;;
12232;SDS011;6179;51.748;8.728;2023-04-25T16:01:32;3.40;;;0.60;;
12232;SDS011;6179;51.748;8.728;2023-04-25T16:07:33;1.70;;;0.90;;
12232;SDS011;6179;51.748;8.728;2023-04-25T16:13:34;2.57;;;0.60;;
12232;SDS011;6179;51.748;8.728;2023-04-25T16:19:35;4.00;;;0.60;;
12232;SDS011;6179;51.748;8.728;2023-04-25T16:25:36;0.50;;;0.50;;
12232;SDS011;6179;51.748;8.728;2023-04-25T16:31:37;3.13;;;0.47;;
12232;SDS011;6179;51.748;8.728;2023-04-25T16:37:38;2.40;;;0.90;;
12232;SDS011;6179;51.748;8.728;2023-04-25T16:43:38;5.87;;;0.80;;
12232;SDS011;6179;51.748;8.728;2023-04-25T16:49:40;0.60;;;0.33;;
12232;SDS011;6179;51.748;8.728;2023-04-25T16:55:40;0.77;;;0.30;;
12232;SDS011;6179;51.748;8.728;2023-04-25T17:01:41;0.40;;;0.40;;
12232;SDS011;6179;51.748;8.728;2023-04-25T17:07:42;2.83;;;0.80;;
12232;SDS011;6179;51.748;8.728;2023-04-25T17:13:42;0.60;;;0.50;;
12232;SDS011;6179;51.748;8.728;2023-04-25T17:19:44;3.10;;;0.60;;
12232;SDS011;6179;51.748;8.728;2023-04-25T17:25:45;2.00;;;0.60;;
12232;SDS011;6179;51.748;8.728;2023-04-25T17:31:45;3.03;;;0.57;;
12232;SDS011;6179;51.748;8.728;2023-04-25T17:37:46;5.10;;;0.50;;
12232;SDS011;6179;51.748;8.728;2023-04-25T17:43:47;5.23;;;0.50;;
12232;SDS011;6179;51.748;8.728;2023-04-25T17:49:48;8.77;;;0.77;;
12232;SDS011;6179;51.748;8.728;2023-04-25T17:55:49;2.30;;;0.87;;
12232;SDS011;6179;51.748;8.728;2023-04-25T18:01:49;0.97;;;0.60;;
12232;SDS011;6179;51.748;8.728;2023-04-25T18:07:50;4.87;;;1.17;;
12232;SDS011;6179;51.748;8.728;2023-04-25T18:13:51;1.73;;;0.70;;
12232;SDS011;6179;51.748;8.728;2023-04-25T18:19:52;6.57;;;0.67;;
12232;SDS011;6179;51.748;8.728;2023-04-25T18:25:52;0.63;;;0.50;;
12232;SDS011;6179;51.748;8.728;2023-04-25T18:31:53;0.87;;;0.87;;
12232;SDS011;6179;51.748;8.728;2023-04-25T18:37:54;1.33;;;0.60;;
12232;SDS011;6179;51.748;8.728;2023-04-25T18:43:54;7.40;;;1.13;;
12232;SDS011;6179;51.748;8.728;2023-04-25T18:49:57;4.33;;;1.10;;
12232;SDS011;6179;51.748;8.728;2023-04-25T18:55:58;1.97;;;0.90;;
12232;SDS011;6179;51.748;8.728;2023-04-25T19:01:59;1.00;;;0.70;;
12232;SDS011;6179;51.748;8.728;2023-04-25T19:08:00;3.37;;;2.07;;
12232;SDS011;6179;51.748;8.728;2023-04-25T19:14:01;4.47;;;1.10;;
12232;SDS011;6179;51.748;8.728;2023-04-25T19:20:02;3.80;;;0.83;;
12232;SDS011;6179;51.748;8.728;2023-04-25T19:26:03;0.83;;;0.67;;
12232;SDS011;6179;51.748;8.728;2023-04-25T19:32:04;5.50;;;0.90;;
12232;SDS011;6179;51.748;8.728;2023-04-25T19:38:05;13.43;;;0.80;;
12232;SDS011;6179;51.748;8.728;2023-04-25T19:44:06;2.10;;;0.90;;
12232;SDS011;6179;51.748;8.728;2023-04-25T19:50:08;1.70;;;0.50;;
12232;SDS011;6179;51.748;8.728;2023-04-25T19:56:09;2.23;;;0.60;;
12232;SDS011;6179;51.748;8.728;2023-04-25T20:02:10;2.90;;;0.63;;
12232;SDS011;6179;51.748;8.728;2023-04-25T20:08:11;0.90;;;0.70;;
12232;SDS011;6179;51.748;8.728;2023-04-25T20:14:12;1.70;;;0.50;;
12232;SDS011;6179;51.748;8.728;2023-04-25T20:20:13;8.03;;;1.23;;
12232;SDS011;6179;51.748;8.728;2023-04-25T20:26:13;1.17;;;0.80;;
12232;SDS011;6179;51.748;8.728;2023-04-25T20:32:14;4.30;;;0.57;;
12232;SDS011;6179;51.748;8.728;2023-04-25T20:38:15;7.50;;;1.00;;
12232;SDS011;6179;51.748;8.728;2023-04-25T20:44:16;0.80;;;0.47;;
12232;SDS011;6179;51.748;8.728;2023-04-25T20:50:18;1.07;;;0.40;;
12232;SDS011;6179;51.748;8.728;2023-04-25T20:56:19;2.67;;;0.70;;
12232;SDS011;6179;51.748;8.728;2023-04-25T21:02:19;3.20;;;0.80;;
12232;SDS011;6179;51.748;8.728;2023-04-25T21:08:20;0.50;;;0.50;;
12232;SDS011;6179;51.748;8.728;2023-04-25T21:14:21;5.70;;;0.60;;
12232;SDS011;6179;51.748;8.728;2023-04-25T21:20:24;7.60;;;1.73;;
12232;SDS011;6179;51.748;8.728;2023-04-25T21:26:25;3.70;;;0.50;;
12232;SDS011;6179;51.748;8.728;2023-04-25T21:32:26;0.50;;;0.50;;
12232;SDS011;6179;51.748;8.728;2023-04-25T21:38:27;0.47;;;0.47;;
12232;SDS011;6179;51.748;8.728;2023-04-25T21:44:27;6.60;;;2.60;;
12232;SDS011;6179;51.748;8.728;2023-04-25T21:50:29;1.03;;;0.50;;
12232;SDS011;6179;51.748;8.728;2023-04-25T21:56:31;7.60;;;1.13;;
12232;SDS011;6179;51.748;8.728;2023-04-25T22:02:31;5.20;;;1.17;;
12232;SDS011;6179;51.748;8.728;2023-04-25T22:08:33;1.50;;;0.80;;
12232;SDS011;6179;51.748;8.728;2023-04-25T22:14:34;1.17;;;0.87;;
12232;SDS011;6179;51.748;8.728;2023-04-25T22:20:36;0.60;;;0.60;;
12232;SDS011;6179;51.748;8.728;2023-04-25T22:26:37;5.00;;;1.50;;
12232;SDS011;6179;51.748;8.728;2023-04-25T22:32:38;8.33;;;2.33;;
12232;SDS011;6179;51.748;8.728;2023-04-25T22:38:40;2.93;;;0.80;;
12232;SDS011;6179;51.748;8.728;2023-04-25T22:44:40;3.90;;;1.47;;
12232;SDS011;6179;51.748;8.728;2023-04-25T22:50:41;3.63;;;0.87;;
12232;SDS011;6179;51.748;8.728;2023-04-25T22:56:42;2.80;;;1.13;;
12232;SDS011;6179;51.748;8.728;2023-04-25T23:02:43;7.90;;;0.70;;
12232;SDS011;6179;51.748;8.728;2023-04-25T23:08:44;14.20;;;1.13;;
12232;SDS011;6179;51.748;8.728;2023-04-25T23:14:48;9.33;;;1.63;;
12232;SDS011;6179;51.748;8.728;2023-04-25T23:20:52;2.50;;;0.60;;
12232;SDS011;6179;51.748;8.728;2023-04-25T23:26:53;5.10;;;1.40;;
12232;SDS011;6179;51.748;8.728;2023-04-25T23:32:53;1.63;;;0.80;;
12232;SDS011;6179;51.748;8.728;2023-04-25T23:38:54;2.73;;;2.10;;
12232;SDS011;6179;51.748;8.728;2023-04-25T23:44:56;2.00;;;1.27;;
12232;SDS011;6179;51.748;8.728;2023-04-25T23:50:56;8.70;;;1.10;;
12232;SDS011;6179;51.748;8.728;2023-04-25T23:56:57;2.23;;;2.03;;
